createdAt,value
2022-12-27T00:00:49.341Z,0.00
2022-12-27T00:01:49.549Z,0.00
2022-12-27T00:02:49.619Z,0.00
2022-12-27T00:03:49.780Z,0.00
2022-12-27T00:04:49.948Z,0.00
2022-12-27T00:05:50.125Z,0.00
2022-12-27T00:06:50.295Z,0.00
2022-12-27T00:07:50.471Z,0.00
2022-12-27T00:08:50.642Z,0.00
2022-12-27T00:09:50.830Z,0.00
2022-12-27T00:10:51.019Z,0.00
2022-12-27T00:11:56.366Z,0.00
2022-12-27T00:12:52.353Z,0.00
2022-12-27T00:13:51.523Z,0.00
2022-12-27T00:14:51.690Z,0.00
2022-12-27T00:15:51.899Z,0.00
2022-12-27T00:16:52.133Z,0.00
2022-12-27T00:17:52.296Z,0.00
2022-12-27T00:18:52.545Z,0.00
2022-12-27T00:19:52.624Z,0.00
2022-12-27T00:20:52.784Z,0.00
2022-12-27T00:21:52.981Z,0.00
2022-12-27T00:22:53.150Z,0.00
2022-12-27T00:23:53.327Z,0.00
2022-12-27T00:24:53.518Z,0.00
2022-12-27T00:25:53.730Z,0.00
2022-12-27T00:26:53.959Z,0.00
2022-12-27T00:27:54.039Z,0.00
2022-12-27T00:28:54.213Z,0.00
2022-12-27T00:29:54.428Z,0.00
2022-12-27T00:30:54.614Z,0.00
2022-12-27T00:31:54.884Z,0.00
2022-12-27T00:32:54.967Z,0.00
2022-12-27T00:33:55.170Z,0.00
2022-12-27T00:34:55.330Z,0.00
2022-12-27T00:35:55.556Z,0.00
2022-12-27T00:36:55.645Z,0.00
2022-12-27T00:37:55.833Z,0.00
2022-12-27T00:38:56.151Z,0.00
2022-12-27T00:39:56.225Z,0.00
2022-12-27T00:40:56.394Z,0.00
2022-12-27T00:41:56.586Z,0.00
2022-12-27T00:42:56.947Z,0.00
2022-12-27T00:43:57.001Z,0.00
2022-12-27T00:44:57.167Z,0.00
2022-12-27T00:45:57.366Z,0.00
2022-12-27T00:46:57.538Z,0.00
2022-12-27T00:47:57.731Z,0.00
2022-12-27T00:48:57.896Z,0.00
2022-12-27T00:49:58.068Z,0.00
2022-12-27T00:50:58.235Z,0.00
2022-12-27T00:51:58.420Z,0.00
2022-12-27T00:52:58.589Z,0.00
2022-12-27T00:53:58.770Z,0.00
2022-12-27T00:54:58.939Z,0.00
2022-12-27T00:55:59.129Z,0.00
2022-12-27T00:56:59.319Z,0.00
2022-12-27T00:57:59.503Z,0.00
2022-12-27T00:58:59.685Z,0.00
2022-12-27T01:00:03.402Z,0.00
2022-12-27T01:01:01.001Z,0.00
2022-12-27T01:02:00.318Z,0.00
2022-12-27T01:03:00.308Z,0.00
2022-12-27T01:04:00.536Z,0.00
2022-12-27T01:05:00.628Z,0.00
2022-12-27T01:06:00.810Z,0.00
2022-12-27T01:07:01.017Z,0.00
2022-12-27T01:08:01.217Z,0.00
2022-12-27T01:09:01.433Z,0.00
2022-12-27T01:10:01.609Z,0.00
2022-12-27T01:11:01.837Z,0.00
2022-12-27T01:12:02.033Z,0.00
2022-12-27T01:13:02.200Z,0.00
2022-12-27T01:14:02.410Z,0.00
2022-12-27T01:15:03.578Z,0.00
2022-12-27T01:16:02.789Z,0.00
2022-12-27T01:17:03.024Z,0.00
2022-12-27T01:18:03.156Z,0.00
2022-12-27T01:19:03.234Z,0.00
2022-12-27T01:20:03.457Z,0.00
2022-12-27T01:21:03.626Z,0.00
2022-12-27T01:22:03.863Z,0.00
2022-12-27T01:23:04.035Z,0.00
2022-12-27T01:24:04.225Z,0.00
2022-12-27T01:25:04.430Z,0.00
2022-12-27T01:26:04.591Z,0.00
2022-12-27T01:27:04.814Z,0.00
2022-12-27T01:28:05.069Z,0.00
2022-12-27T01:29:05.147Z,0.00
2022-12-27T01:30:05.379Z,0.00
2022-12-27T01:31:05.457Z,0.00
2022-12-27T01:32:05.743Z,0.00
2022-12-27T01:33:05.761Z,0.00
2022-12-27T01:34:05.937Z,0.00
2022-12-27T01:35:06.156Z,0.00
2022-12-27T01:36:06.244Z,0.00
2022-12-27T01:37:06.440Z,0.00
2022-12-27T01:38:06.647Z,0.00
2022-12-27T01:39:06.839Z,0.00
2022-12-27T01:40:07.062Z,0.00
2022-12-27T01:41:07.144Z,0.00
2022-12-27T01:42:07.365Z,0.00
2022-12-27T01:43:07.588Z,0.00
2022-12-27T01:44:07.670Z,0.00
2022-12-27T01:45:07.873Z,0.00
2022-12-27T01:46:08.146Z,0.00
2022-12-27T01:47:08.289Z,0.00
2022-12-27T01:48:08.508Z,0.00
2022-12-27T01:49:08.689Z,0.00
2022-12-27T01:50:08.901Z,0.00
2022-12-27T01:51:09.103Z,0.00
2022-12-27T01:52:09.328Z,0.00
2022-12-27T01:53:09.419Z,0.00
2022-12-27T01:54:09.616Z,0.00
2022-12-27T01:55:09.883Z,0.00
2022-12-27T01:56:09.963Z,0.00
2022-12-27T01:57:10.167Z,0.00
2022-12-27T01:58:10.363Z,0.00
2022-12-27T01:59:10.562Z,0.00
2022-12-27T02:00:10.778Z,0.00
2022-12-27T02:01:11.095Z,0.00
2022-12-27T02:02:11.907Z,0.00
2022-12-27T02:03:11.400Z,0.00
2022-12-27T02:04:11.593Z,0.00
2022-12-27T02:05:11.801Z,0.00
2022-12-27T02:06:12.001Z,0.00
2022-12-27T02:07:12.211Z,0.00
2022-12-27T02:08:12.422Z,0.00
2022-12-27T02:09:12.636Z,0.00
2022-12-27T02:10:12.842Z,0.00
2022-12-27T02:11:13.028Z,0.00
2022-12-27T02:12:13.259Z,0.00
2022-12-27T02:13:13.333Z,0.00
2022-12-27T02:14:13.549Z,0.00
2022-12-27T02:15:13.750Z,0.00
2022-12-27T02:16:13.960Z,0.00
2022-12-27T02:17:14.169Z,0.00
2022-12-27T02:18:14.380Z,0.00
2022-12-27T02:19:14.592Z,0.00
2022-12-27T02:20:14.802Z,0.00
2022-12-27T02:21:15.008Z,0.00
2022-12-27T02:22:15.215Z,0.00
2022-12-27T02:23:15.414Z,0.00
2022-12-27T02:24:15.625Z,0.00
2022-12-27T02:25:15.742Z,0.00
2022-12-27T02:26:15.947Z,0.00
2022-12-27T02:27:16.155Z,0.00
2022-12-27T02:28:16.357Z,0.00
2022-12-27T02:29:16.549Z,0.00
2022-12-27T02:30:16.765Z,0.00
2022-12-27T02:31:17.015Z,0.00
2022-12-27T02:32:17.119Z,0.00
2022-12-27T02:33:17.311Z,0.00
2022-12-27T02:34:17.520Z,0.00
2022-12-27T02:35:17.716Z,0.00
2022-12-27T02:36:17.913Z,0.00
2022-12-27T02:37:18.113Z,0.00
2022-12-27T02:38:18.314Z,0.00
2022-12-27T02:39:18.501Z,0.00
2022-12-27T02:40:18.707Z,0.00
2022-12-27T02:41:18.934Z,0.00
2022-12-27T02:42:19.048Z,0.00
2022-12-27T02:43:19.253Z,0.00
2022-12-27T02:44:19.458Z,0.00
2022-12-27T02:45:19.667Z,0.00
2022-12-27T02:46:21.717Z,0.00
2022-12-27T02:47:20.035Z,0.00
2022-12-27T02:48:20.244Z,0.00
2022-12-27T02:49:20.457Z,0.00
2022-12-27T02:50:20.656Z,0.00
2022-12-27T02:51:20.895Z,0.00
2022-12-27T02:52:21.002Z,0.00
2022-12-27T02:53:21.123Z,0.00
2022-12-27T02:54:21.202Z,0.00
2022-12-27T02:55:21.422Z,0.00
2022-12-27T02:56:21.628Z,0.00
2022-12-27T02:57:21.843Z,0.00
2022-12-27T02:58:22.057Z,0.00
2022-12-27T02:59:22.281Z,0.00
2022-12-27T03:00:22.370Z,0.00
2022-12-27T03:01:22.648Z,0.00
2022-12-27T03:02:22.923Z,0.00
2022-12-27T03:03:22.945Z,0.00
2022-12-27T03:04:23.053Z,0.00
2022-12-27T03:05:23.161Z,0.00
2022-12-27T03:06:23.282Z,0.00
2022-12-27T03:07:23.395Z,0.00
2022-12-27T03:08:23.593Z,0.00
2022-12-27T03:09:23.796Z,0.00
2022-12-27T03:10:23.990Z,0.00
2022-12-27T03:11:24.221Z,0.00
2022-12-27T03:12:24.416Z,0.00
2022-12-27T03:13:24.521Z,0.00
2022-12-27T03:14:24.760Z,0.00
2022-12-27T03:15:29.010Z,0.00
2022-12-27T03:16:26.076Z,0.00
2022-12-27T03:17:25.227Z,0.00
2022-12-27T03:18:25.342Z,0.00
2022-12-27T03:19:25.547Z,0.00
2022-12-27T03:20:25.755Z,0.00
2022-12-27T03:21:25.973Z,0.00
2022-12-27T03:22:26.182Z,0.00
2022-12-27T03:23:26.378Z,0.00
2022-12-27T03:24:26.587Z,0.00
2022-12-27T03:25:26.799Z,0.00
2022-12-27T03:26:27.008Z,0.00
2022-12-27T03:27:27.237Z,0.00
2022-12-27T03:28:27.323Z,0.00
2022-12-27T03:29:27.536Z,0.00
2022-12-27T03:30:27.751Z,0.00
2022-12-27T03:31:27.992Z,0.00
2022-12-27T03:32:28.084Z,0.00
2022-12-27T03:33:28.336Z,0.00
2022-12-27T03:34:28.449Z,0.00
2022-12-27T03:35:28.634Z,0.00
2022-12-27T03:36:28.872Z,0.00
2022-12-27T03:37:29.031Z,0.00
2022-12-27T03:38:29.128Z,0.00
2022-12-27T03:39:29.322Z,0.00
2022-12-27T03:40:29.527Z,0.00
2022-12-27T03:41:29.753Z,0.00
2022-12-27T03:42:29.981Z,0.00
2022-12-27T03:43:30.083Z,0.00
2022-12-27T03:44:30.305Z,0.00
2022-12-27T03:45:30.408Z,0.00
2022-12-27T03:46:30.669Z,0.00
2022-12-27T03:47:30.920Z,0.00
2022-12-27T03:48:31.003Z,0.00
2022-12-27T03:49:31.220Z,0.00
2022-12-27T03:50:31.428Z,0.00
2022-12-27T03:51:31.645Z,0.00
2022-12-27T03:52:31.887Z,0.00
2022-12-27T03:53:31.984Z,0.00
2022-12-27T03:54:32.269Z,0.00
2022-12-27T03:55:33.671Z,0.00
2022-12-27T03:56:32.478Z,0.00
2022-12-27T03:57:32.707Z,0.00
2022-12-27T03:58:32.808Z,0.00
2022-12-27T03:59:33.018Z,0.00
2022-12-27T04:00:33.221Z,0.00
2022-12-27T04:01:33.453Z,0.00
2022-12-27T04:02:33.743Z,0.00
2022-12-27T04:03:33.851Z,0.00
2022-12-27T04:04:33.957Z,0.00
2022-12-27T04:05:34.154Z,0.00
2022-12-27T04:06:34.354Z,0.00
2022-12-27T04:07:34.591Z,0.00
2022-12-27T04:08:34.728Z,0.00
2022-12-27T04:09:34.827Z,0.00
2022-12-27T04:10:34.953Z,0.00
2022-12-27T04:11:35.051Z,0.00
2022-12-27T04:12:35.331Z,0.00
2022-12-27T04:13:35.417Z,0.00
2022-12-27T04:14:35.616Z,0.00
2022-12-27T04:15:35.854Z,0.00
2022-12-27T04:16:36.055Z,0.00
2022-12-27T04:17:36.270Z,0.00
2022-12-27T04:18:36.465Z,0.00
2022-12-27T04:19:36.679Z,0.00
2022-12-27T04:20:36.881Z,0.00
2022-12-27T04:21:37.101Z,0.00
2022-12-27T04:22:37.222Z,0.00
2022-12-27T04:23:37.459Z,0.00
2022-12-27T04:24:37.548Z,0.00
2022-12-27T04:25:37.759Z,0.00
2022-12-27T04:26:37.980Z,0.00
2022-12-27T04:27:38.228Z,0.00
2022-12-27T04:28:38.341Z,0.00
2022-12-27T04:29:38.562Z,0.00
2022-12-27T04:30:38.688Z,0.00
2022-12-27T04:31:38.944Z,0.00
2022-12-27T04:32:39.006Z,0.00
2022-12-27T04:33:39.205Z,0.00
2022-12-27T04:34:39.372Z,0.00
2022-12-27T04:35:39.563Z,0.00
2022-12-27T04:36:39.728Z,0.00
2022-12-27T04:37:39.855Z,0.00
2022-12-27T04:38:39.959Z,0.00
2022-12-27T04:39:40.190Z,0.00
2022-12-27T04:40:40.273Z,0.00
2022-12-27T04:41:40.480Z,0.00
2022-12-27T04:42:40.690Z,0.00
2022-12-27T04:43:40.927Z,0.00
2022-12-27T04:44:41.003Z,0.00
2022-12-27T04:45:41.219Z,0.00
2022-12-27T04:46:41.406Z,0.00
2022-12-27T04:47:41.499Z,0.00
2022-12-27T04:48:41.593Z,0.00
2022-12-27T04:49:41.802Z,0.00
2022-12-27T04:50:42.016Z,0.00
2022-12-27T04:51:42.229Z,0.00
2022-12-27T04:52:42.328Z,0.00
2022-12-27T04:53:42.526Z,0.00
2022-12-27T04:54:42.720Z,0.00
2022-12-27T04:55:42.923Z,0.00
2022-12-27T04:56:43.114Z,0.00
2022-12-27T04:57:43.399Z,0.00
2022-12-27T04:58:43.493Z,0.00
2022-12-27T04:59:43.707Z,0.00
2022-12-27T05:00:43.902Z,0.00
2022-12-27T05:01:44.070Z,0.00
2022-12-27T05:02:44.247Z,0.00
2022-12-27T05:03:44.250Z,0.00
2022-12-27T05:04:44.341Z,0.00
2022-12-27T05:05:44.526Z,0.00
2022-12-27T05:06:44.647Z,0.00
2022-12-27T05:07:44.879Z,0.00
2022-12-27T05:08:45.075Z,0.00
2022-12-27T05:09:45.191Z,0.00
2022-12-27T05:10:45.325Z,0.00
2022-12-27T05:11:45.449Z,0.00
2022-12-27T05:12:52.634Z,0.00
2022-12-27T05:13:45.805Z,0.00
2022-12-27T05:14:46.008Z,0.00
2022-12-27T05:15:46.269Z,0.00
2022-12-27T05:16:46.366Z,0.00
2022-12-27T05:17:46.584Z,0.00
2022-12-27T05:18:46.678Z,0.00
2022-12-27T05:19:46.870Z,0.00
2022-12-27T05:20:47.075Z,0.00
2022-12-27T05:21:47.280Z,0.00
2022-12-27T05:22:47.495Z,0.00
2022-12-27T05:23:47.697Z,0.00
2022-12-27T05:24:47.888Z,0.00
2022-12-27T05:25:48.086Z,0.00
2022-12-27T05:26:48.307Z,0.00
2022-12-27T05:27:48.515Z,0.00
2022-12-27T05:28:48.710Z,0.00
2022-12-27T05:29:48.946Z,0.00
2022-12-27T05:30:49.037Z,0.00
2022-12-27T05:31:49.316Z,0.00
2022-12-27T05:32:49.426Z,0.00
2022-12-27T05:33:49.630Z,0.00
2022-12-27T05:34:49.830Z,0.00
2022-12-27T05:35:50.035Z,0.00
2022-12-27T05:36:50.222Z,0.00
2022-12-27T05:37:54.899Z,0.00
2022-12-27T05:38:50.574Z,0.00
2022-12-27T05:39:50.792Z,0.00
2022-12-27T05:40:51.026Z,0.00
2022-12-27T05:41:51.122Z,0.00
2022-12-27T05:42:51.341Z,0.00
2022-12-27T05:43:51.534Z,0.00
2022-12-27T05:44:51.736Z,0.00
2022-12-27T05:45:51.934Z,0.00
2022-12-27T05:46:52.135Z,0.00
2022-12-27T05:47:52.328Z,0.00
2022-12-27T05:48:52.530Z,0.00
2022-12-27T05:49:52.742Z,0.00
2022-12-27T05:50:52.930Z,0.00
2022-12-27T05:51:53.138Z,0.00
2022-12-27T05:52:53.346Z,0.00
2022-12-27T05:53:53.552Z,0.00
2022-12-27T05:54:53.773Z,0.00
2022-12-27T05:55:53.867Z,0.00
2022-12-27T05:56:54.043Z,0.00
2022-12-27T05:57:54.256Z,0.00
2022-12-27T05:58:54.463Z,0.00
2022-12-27T05:59:54.642Z,0.00
2022-12-27T06:00:54.827Z,0.00
2022-12-27T06:01:55.187Z,0.00
2022-12-27T06:02:55.250Z,0.00
2022-12-27T06:03:55.302Z,0.00
2022-12-27T06:04:55.479Z,0.00
2022-12-27T06:05:55.672Z,0.00
2022-12-27T06:06:55.874Z,0.00
2022-12-27T06:07:56.076Z,0.00
2022-12-27T06:08:56.255Z,0.00
2022-12-27T06:09:56.447Z,0.00
2022-12-27T06:10:56.623Z,0.00
2022-12-27T06:11:56.824Z,0.00
2022-12-27T06:12:57.021Z,0.00
2022-12-27T06:13:57.223Z,0.00
2022-12-27T06:14:57.414Z,0.00
2022-12-27T06:15:57.602Z,0.00
2022-12-27T06:16:57.790Z,0.00
2022-12-27T06:17:58.016Z,0.00
2022-12-27T06:18:58.192Z,0.00
2022-12-27T06:19:58.410Z,0.00
2022-12-27T06:20:58.603Z,0.00
2022-12-27T06:21:58.810Z,0.00
2022-12-27T06:22:59.018Z,0.00
2022-12-27T06:23:59.231Z,0.00
2022-12-27T06:24:59.429Z,0.00
2022-12-27T06:25:59.642Z,0.00
2022-12-27T06:26:59.833Z,0.00
2022-12-27T06:28:00.049Z,0.00
2022-12-27T06:29:00.256Z,0.00
2022-12-27T06:30:00.444Z,0.00
2022-12-27T06:31:00.662Z,0.00
2022-12-27T06:32:00.890Z,0.00
2022-12-27T06:33:00.973Z,0.00
2022-12-27T06:34:01.187Z,0.00
2022-12-27T06:35:01.387Z,0.00
2022-12-27T06:36:01.585Z,4.00
2022-12-27T06:37:01.771Z,0.00
2022-12-27T06:38:01.990Z,0.00
2022-12-27T06:39:02.194Z,4.00
2022-12-27T06:40:02.362Z,0.00
2022-12-27T06:41:02.556Z,4.00
2022-12-27T06:42:02.776Z,4.00
2022-12-27T06:43:02.983Z,4.00
2022-12-27T06:44:03.209Z,4.00
2022-12-27T06:45:03.401Z,4.00
2022-12-27T06:46:03.734Z,4.00
2022-12-27T06:47:03.749Z,4.00
2022-12-27T06:48:03.973Z,4.00
2022-12-27T06:49:04.081Z,4.00
2022-12-27T06:50:04.268Z,8.00
2022-12-27T06:51:04.469Z,8.00
2022-12-27T06:52:04.659Z,12.00
2022-12-27T06:53:04.886Z,16.00
2022-12-27T06:54:04.990Z,16.00
2022-12-27T06:55:05.191Z,16.00
2022-12-27T06:56:05.378Z,20.00
2022-12-27T06:57:05.626Z,20.00
2022-12-27T06:58:05.750Z,20.00
2022-12-27T06:59:05.957Z,24.00
2022-12-27T07:00:06.143Z,28.00
2022-12-27T07:01:06.317Z,40.00
2022-12-27T07:02:06.607Z,44.00
2022-12-27T07:03:06.636Z,44.00
2022-12-27T07:04:06.703Z,48.00
2022-12-27T07:05:06.936Z,56.00
2022-12-27T07:06:07.075Z,64.00
2022-12-27T07:07:12.065Z,72.00
2022-12-27T07:08:08.400Z,80.00
2022-12-27T07:09:07.532Z,92.00
2022-12-27T07:10:07.655Z,108.00
2022-12-27T07:11:07.799Z,120.00
2022-12-27T07:12:07.904Z,136.00
2022-12-27T07:13:08.034Z,148.00
2022-12-27T07:14:08.155Z,160.00
2022-12-27T07:15:08.296Z,156.00
2022-12-27T07:16:08.454Z,140.00
2022-12-27T07:17:08.612Z,136.00
2022-12-27T07:18:08.730Z,140.00
2022-12-27T07:19:08.865Z,136.00
2022-12-27T07:20:08.992Z,148.00
2022-12-27T07:21:09.125Z,140.00
2022-12-27T07:22:09.245Z,120.00
2022-12-27T07:23:11.935Z,144.00
2022-12-27T07:24:10.573Z,144.00
2022-12-27T07:25:09.700Z,144.00
2022-12-27T07:26:09.824Z,176.00
2022-12-27T07:27:09.959Z,220.00
2022-12-27T07:28:10.087Z,240.00
2022-12-27T07:29:10.239Z,220.00
2022-12-27T07:30:10.359Z,192.00
2022-12-27T07:31:10.526Z,200.00
2022-12-27T07:32:10.832Z,188.00
2022-12-27T07:33:10.773Z,212.00
2022-12-27T07:34:10.929Z,244.00
2022-12-27T07:35:11.077Z,284.00
2022-12-27T07:36:11.211Z,332.00
2022-12-27T07:37:11.364Z,388.00
2022-12-27T07:38:11.488Z,476.00
2022-12-27T07:39:11.651Z,512.00
2022-12-27T07:40:11.786Z,436.00
2022-12-27T07:41:11.925Z,376.00
2022-12-27T07:42:12.063Z,448.00
2022-12-27T07:43:12.198Z,664.00
2022-12-27T07:44:12.324Z,884.00
2022-12-27T07:45:12.461Z,1112.00
2022-12-27T07:46:12.641Z,1240.00
2022-12-27T07:47:12.841Z,1260.00
2022-12-27T07:48:12.985Z,1452.00
2022-12-27T07:49:17.530Z,1524.00
2022-12-27T07:50:14.295Z,1344.00
2022-12-27T07:51:13.427Z,1180.00
2022-12-27T07:52:13.546Z,972.00
2022-12-27T07:53:13.678Z,720.00
2022-12-27T07:54:13.826Z,744.00
2022-12-27T07:55:13.960Z,788.00
2022-12-27T07:56:14.110Z,572.00
2022-12-27T07:57:14.232Z,564.00
2022-12-27T07:58:14.369Z,600.00
2022-12-27T07:59:14.508Z,500.00
2022-12-27T08:00:14.639Z,496.00
2022-12-27T08:01:14.927Z,512.00
2022-12-27T08:02:15.075Z,520.00
2022-12-27T08:03:15.157Z,556.00
2022-12-27T08:04:15.277Z,572.00
2022-12-27T08:05:15.404Z,552.00
2022-12-27T08:06:15.497Z,548.00
2022-12-27T08:07:15.733Z,544.00
2022-12-27T08:08:15.823Z,588.00
2022-12-27T08:09:16.052Z,708.00
2022-12-27T08:10:16.136Z,848.00
2022-12-27T08:11:16.394Z,796.00
2022-12-27T08:12:16.504Z,732.00
2022-12-27T08:13:16.763Z,668.00
2022-12-27T08:14:16.894Z,636.00
2022-12-27T08:15:17.016Z,644.00
2022-12-27T08:16:17.241Z,660.00
2022-12-27T08:17:17.301Z,704.00
2022-12-27T08:18:17.420Z,728.00
2022-12-27T08:19:17.525Z,744.00
2022-12-27T08:20:17.637Z,768.00
2022-12-27T08:21:17.763Z,692.00
2022-12-27T08:22:17.867Z,684.00
2022-12-27T08:23:17.986Z,644.00
2022-12-27T08:24:18.105Z,560.00
2022-12-27T08:25:18.232Z,632.00
2022-12-27T08:26:18.338Z,624.00
2022-12-27T08:27:18.560Z,676.00
2022-12-27T08:28:18.672Z,788.00
2022-12-27T08:29:18.895Z,932.00
2022-12-27T08:30:19.012Z,924.00
2022-12-27T08:31:19.158Z,1036.00
2022-12-27T08:32:19.298Z,1368.00
2022-12-27T08:33:19.512Z,1468.00
2022-12-27T08:34:19.622Z,1612.00
2022-12-27T08:35:50.781Z,1772.00
2022-12-27T08:37:21.182Z,2088.00
2022-12-27T08:38:20.308Z,2032.00
2022-12-27T08:39:20.400Z,1860.00
2022-12-27T08:40:20.500Z,1812.00
2022-12-27T08:41:20.610Z,1764.00
2022-12-27T08:42:20.810Z,1804.00
2022-12-27T08:43:21.034Z,1756.00
2022-12-27T08:44:21.137Z,1832.00
2022-12-27T08:45:21.247Z,1832.00
2022-12-27T08:46:21.479Z,1728.00
2022-12-27T08:47:21.628Z,1704.00
2022-12-27T08:48:21.756Z,1836.00
2022-12-27T08:49:21.889Z,1780.00
2022-12-27T08:50:22.000Z,1788.00
2022-12-27T08:51:32.693Z,1680.00
2022-12-27T08:52:23.279Z,1860.00
2022-12-27T08:53:22.422Z,1692.00
2022-12-27T08:54:22.571Z,1160.00
2022-12-27T08:55:22.721Z,976.00
2022-12-27T08:56:22.817Z,824.00
2022-12-27T08:57:23.050Z,664.00
2022-12-27T08:58:23.132Z,712.00
2022-12-27T08:59:23.327Z,788.00
2022-12-27T09:00:23.502Z,904.00
2022-12-27T09:01:23.868Z,996.00
2022-12-27T09:02:23.934Z,800.00
2022-12-27T09:03:24.078Z,816.00
2022-12-27T09:04:24.161Z,952.00
2022-12-27T09:05:24.432Z,1088.00
2022-12-27T09:06:24.533Z,1196.00
2022-12-27T09:07:24.623Z,1292.00
2022-12-27T09:08:24.811Z,1204.00
2022-12-27T09:09:25.048Z,1048.00
2022-12-27T09:10:25.172Z,1444.00
2022-12-27T09:11:25.328Z,1680.00
2022-12-27T09:12:25.419Z,1312.00
2022-12-27T09:13:25.535Z,1492.00
2022-12-27T09:14:25.626Z,1580.00
2022-12-27T09:15:25.866Z,1860.00
2022-12-27T09:16:25.942Z,1900.00
2022-12-27T09:17:26.155Z,1360.00
2022-12-27T09:18:26.348Z,1136.00
2022-12-27T09:19:26.597Z,1536.00
2022-12-27T09:20:26.670Z,2516.00
2022-12-27T09:21:26.889Z,3104.00
2022-12-27T09:22:27.065Z,3652.00
2022-12-27T09:23:27.293Z,3864.00
2022-12-27T09:24:27.385Z,3568.00
2022-12-27T09:25:27.658Z,3196.00
2022-12-27T09:26:27.732Z,3240.00
2022-12-27T09:27:27.939Z,3568.00
2022-12-27T09:28:28.129Z,8096.00
2022-12-27T09:29:28.374Z,10288.00
2022-12-27T09:30:28.465Z,5616.00
2022-12-27T09:31:28.706Z,7816.00
2022-12-27T09:32:28.795Z,4680.00
2022-12-27T09:33:28.979Z,4316.00
2022-12-27T09:34:29.147Z,4280.00
2022-12-27T09:35:30.157Z,4176.00
2022-12-27T09:36:29.444Z,3800.00
2022-12-27T09:37:29.604Z,3896.00
2022-12-27T09:38:29.780Z,10236.00
2022-12-27T09:39:29.982Z,10352.00
2022-12-27T09:40:30.028Z,10364.00
2022-12-27T09:42:33.157Z,10616.00
2022-12-27T09:42:52.175Z,10604.00
2022-12-27T09:43:31.361Z,10640.00
2022-12-27T09:44:30.513Z,10620.00
2022-12-27T09:45:30.648Z,11292.00
2022-12-27T09:46:30.823Z,13536.00
2022-12-27T09:47:30.919Z,12864.00
2022-12-27T09:48:33.251Z,6964.00
2022-12-27T09:49:31.550Z,8816.00
2022-12-27T09:50:31.315Z,6288.00
2022-12-27T09:51:31.448Z,11916.00
2022-12-27T09:52:31.563Z,7412.00
2022-12-27T09:53:31.697Z,7792.00
2022-12-27T09:54:31.861Z,7712.00
2022-12-27T09:55:31.980Z,5676.00
2022-12-27T09:57:01.846Z,6204.00
2022-12-27T09:57:33.200Z,6336.00
2022-12-27T09:58:32.326Z,6156.00
2022-12-27T09:59:32.451Z,10724.00
2022-12-27T10:00:35.078Z,12796.00
2022-12-27T10:01:32.849Z,13792.00
2022-12-27T10:02:32.832Z,15616.00
2022-12-27T10:03:32.802Z,16096.00
2022-12-27T10:04:52.892Z,16064.00
2022-12-27T10:05:34.039Z,14816.00
2022-12-27T10:06:33.127Z,13824.00
2022-12-27T10:07:33.250Z,15072.00
2022-12-27T10:08:33.348Z,9328.00
2022-12-27T10:09:33.482Z,15520.00
2022-12-27T10:10:33.565Z,15040.00
2022-12-27T10:11:33.687Z,12524.00
2022-12-27T10:12:33.756Z,9436.00
2022-12-27T10:13:33.877Z,6784.00
2022-12-27T10:14:33.966Z,7392.00
2022-12-27T10:15:34.067Z,13024.00
2022-12-27T10:16:34.167Z,13344.00
2022-12-27T10:17:34.285Z,6884.00
2022-12-27T10:18:34.380Z,12484.00
2022-12-27T10:19:34.451Z,13024.00
2022-12-27T10:20:34.526Z,9980.00
2022-12-27T10:21:34.643Z,13632.00
2022-12-27T10:22:34.760Z,12672.00
2022-12-27T10:23:34.870Z,11684.00
2022-12-27T10:24:34.974Z,14016.00
2022-12-27T10:25:35.061Z,13664.00
2022-12-27T10:26:35.223Z,13504.00
2022-12-27T10:27:35.314Z,5504.00
2022-12-27T10:28:35.431Z,14496.00
2022-12-27T10:29:36.527Z,13184.00
2022-12-27T10:30:35.634Z,10184.00
2022-12-27T10:31:36.008Z,13120.00
2022-12-27T10:32:35.869Z,4544.00
2022-12-27T10:33:35.987Z,4996.00
2022-12-27T10:34:36.065Z,12832.00
2022-12-27T10:35:36.157Z,12576.00
2022-12-27T10:36:36.246Z,11148.00
2022-12-27T10:37:36.346Z,6456.00
2022-12-27T10:38:36.451Z,5556.00
2022-12-27T10:39:36.565Z,5144.00
2022-12-27T10:40:36.659Z,4664.00
2022-12-27T10:41:36.782Z,5312.00
2022-12-27T10:42:36.871Z,7884.00
2022-12-27T10:43:36.975Z,17440.00
2022-12-27T10:44:37.094Z,9452.00
2022-12-27T10:45:37.182Z,8604.00
2022-12-27T10:46:37.334Z,17056.00
2022-12-27T10:47:37.434Z,17664.00
2022-12-27T10:49:02.645Z,17824.00
2022-12-27T10:49:38.670Z,8788.00
2022-12-27T10:50:37.753Z,7624.00
2022-12-27T10:51:37.846Z,7380.00
2022-12-27T10:52:38.075Z,6876.00
2022-12-27T10:53:38.062Z,7200.00
2022-12-27T10:54:38.251Z,6512.00
2022-12-27T10:55:38.246Z,6584.00
2022-12-27T10:56:38.365Z,5004.00
2022-12-27T10:57:38.482Z,5580.00
2022-12-27T10:58:38.601Z,5288.00
2022-12-27T10:59:38.767Z,4308.00
2022-12-27T11:00:38.908Z,3240.00
2022-12-27T11:01:39.142Z,5268.00
2022-12-27T11:02:39.221Z,6168.00
2022-12-27T11:03:39.208Z,7048.00
2022-12-27T11:04:39.338Z,6840.00
2022-12-27T11:05:39.482Z,6036.00
2022-12-27T11:06:39.615Z,5220.00
2022-12-27T11:07:39.756Z,4308.00
2022-12-27T11:08:39.905Z,3548.00
2022-12-27T11:09:42.397Z,3536.00
2022-12-27T11:10:41.126Z,3668.00
2022-12-27T11:11:40.268Z,3656.00
2022-12-27T11:12:40.393Z,3804.00
2022-12-27T11:13:47.534Z,3372.00
2022-12-27T11:14:40.684Z,3652.00
2022-12-27T11:15:41.544Z,3372.00
2022-12-27T11:16:40.937Z,2700.00
2022-12-27T11:17:41.109Z,3320.00
2022-12-27T11:18:41.258Z,2220.00
2022-12-27T11:19:41.410Z,1348.00
2022-12-27T11:20:41.581Z,1620.00
2022-12-27T11:21:41.711Z,1768.00
2022-12-27T11:22:41.868Z,1964.00
2022-12-27T11:23:42.021Z,1600.00
2022-12-27T11:24:42.178Z,1420.00
2022-12-27T11:25:42.340Z,1572.00
2022-12-27T11:26:42.481Z,1192.00
2022-12-27T11:27:42.629Z,1260.00
2022-12-27T11:28:42.800Z,1608.00
2022-12-27T11:29:42.965Z,1300.00
2022-12-27T11:30:43.122Z,1336.00
2022-12-27T11:31:43.306Z,1304.00
2022-12-27T11:32:43.462Z,1372.00
2022-12-27T11:33:43.587Z,1256.00
2022-12-27T11:34:43.779Z,1092.00
2022-12-27T11:35:43.920Z,1152.00
2022-12-27T11:36:44.168Z,1196.00
2022-12-27T11:37:45.180Z,840.00
2022-12-27T11:38:44.372Z,632.00
2022-12-27T11:39:44.597Z,576.00
2022-12-27T11:40:44.639Z,896.00
2022-12-27T11:41:44.821Z,1360.00
2022-12-27T11:42:45.066Z,2264.00
2022-12-27T11:43:45.118Z,3084.00
2022-12-27T11:44:45.322Z,3636.00
2022-12-27T11:45:45.479Z,4444.00
2022-12-27T11:46:45.683Z,4632.00
2022-12-27T11:47:46.824Z,4716.00
2022-12-27T11:48:46.005Z,3736.00
2022-12-27T11:49:46.191Z,3624.00
2022-12-27T11:50:46.343Z,3696.00
2022-12-27T11:51:46.499Z,3016.00
2022-12-27T11:52:46.658Z,2360.00
2022-12-27T11:53:48.771Z,2060.00
2022-12-27T11:54:47.920Z,2104.00
2022-12-27T11:55:47.064Z,2068.00
2022-12-27T11:56:47.226Z,2364.00
2022-12-27T11:57:47.360Z,2656.00
2022-12-27T11:58:47.515Z,2536.00
2022-12-27T11:59:47.689Z,2192.00
2022-12-27T12:00:47.841Z,1984.00
2022-12-27T12:01:48.078Z,2072.00
2022-12-27T12:02:48.389Z,2416.00
2022-12-27T12:03:48.375Z,2492.00
2022-12-27T12:04:48.409Z,2888.00
2022-12-27T12:05:48.559Z,3228.00
2022-12-27T12:06:48.728Z,3276.00
2022-12-27T12:07:48.891Z,2520.00
2022-12-27T12:08:49.063Z,2464.00
2022-12-27T12:09:49.258Z,2396.00
2022-12-27T12:10:49.399Z,2360.00
2022-12-27T12:11:54.595Z,2176.00
2022-12-27T12:12:50.649Z,2844.00
2022-12-27T12:13:49.810Z,3512.00
2022-12-27T12:14:49.974Z,4724.00
2022-12-27T12:15:50.117Z,4924.00
2022-12-27T12:16:50.362Z,4604.00
2022-12-27T12:17:50.432Z,4260.00
2022-12-27T12:18:50.586Z,5744.00
2022-12-27T12:19:50.733Z,5036.00
2022-12-27T12:20:51.294Z,5340.00
2022-12-27T12:21:51.012Z,4568.00
2022-12-27T12:22:51.158Z,3984.00
2022-12-27T12:23:51.302Z,3040.00
2022-12-27T12:24:51.460Z,2876.00
2022-12-27T12:25:51.614Z,3732.00
2022-12-27T12:26:55.865Z,4520.00
2022-12-27T12:27:51.911Z,5140.00
2022-12-27T12:29:00.413Z,4460.00
2022-12-27T12:29:53.195Z,3780.00
2022-12-27T12:30:52.347Z,3076.00
2022-12-27T12:31:52.527Z,3004.00
2022-12-27T12:32:52.614Z,3620.00
2022-12-27T12:33:52.764Z,4648.00
2022-12-27T12:34:52.919Z,9140.00
2022-12-27T12:35:53.057Z,8436.00
2022-12-27T12:36:53.211Z,3604.00
2022-12-27T12:37:53.348Z,3260.00
2022-12-27T12:38:53.498Z,3452.00
2022-12-27T12:39:53.632Z,4488.00
2022-12-27T12:40:53.797Z,4324.00
2022-12-27T12:41:53.944Z,3520.00
2022-12-27T12:42:54.125Z,4876.00
2022-12-27T12:43:54.229Z,6192.00
2022-12-27T12:44:54.372Z,4264.00
2022-12-27T12:45:54.546Z,7984.00
2022-12-27T12:46:54.670Z,8244.00
2022-12-27T12:47:54.803Z,8104.00
2022-12-27T12:48:54.970Z,8588.00